Mikela P. — A8UB7 — position and weather

sailwx.info

Track history (hours):
 
Tides and Currents Weather Stations Pressure Air Temp Water Temp Dewpoint Dewpoint Depression Visibility Wind Speed Wind Dir Waves Ship Positions

Mikela P.

Last reported at 2017-Dec-08 06:18 UTC. Time now 2017-Dec-17 02:31 UTC.
Position N 25°56' W 079°24'.
Warning: this ship's position is 8 days out of date.

Length 274 m; draft 12.4 m.

Type: Ship. MMSI: 636014469.

Date/timePositionNaut miles runAvg speedWind from/ knotsBaromVisibWave heightAir tempDewpointWater temp
2017-Dec-08 06:18N 25°56' W 079°24'415.0
2017-Dec-08 06:00N 25°52' W 079°25'815.1
2017-Dec-08 05:30N 25°44' W 079°27'714.9
2017-Dec-08 05:00N 25°37' W 079°28'714.8
2017-Dec-08 04:30N 25°30' W 079°30'  
2017-Dec-03 05:50N 29°44' W 095°07'0 0.0
2017-Dec-03 04:32N 29°44' W 095°07'0 0.0
2017-Dec-03 04:11N 29°44' W 095°07'0 0.0
2017-Dec-02 08:47N 29°44' W 095°07'0 0.0
2017-Dec-02 08:23N 29°44' W 095°07'0 0.0
2017-Dec-02 06:14N 29°44' W 095°07'0 0.0
2017-Dec-02 05:56N 29°44' W 095°07'0 0.0
2017-Dec-02 00:14N 29°44' W 095°07'0 0.0
2017-Dec-01 23:59N 29°44' W 095°07'0 0.0
2017-Dec-01 23:30N 29°44' W 095°07'0 0.0
2017-Dec-01 23:01N 29°44' W 095°07'1 1.7
2017-Dec-01 22:31N 29°45' W 095°06'2 4.6
2017-Dec-01 22:01N 29°45' W 095°04'4 7.1
2017-Dec-01 21:31N 29°42' W 095°01'4 8.7
2017-Dec-01 21:00N 29°39' W 094°58'510.9
2017-Dec-01 20:31N 29°34' W 094°55'612.1
2017-Dec-01 20:01N 29°29' W 094°52'713.3
2017-Dec-01 19:30N 29°23' W 094°49'1112.7
2017-Dec-01 18:37N 29°18' W 094°37'1 9.9
2017-Dec-01 18:29N 29°17' W 094°36'7 0.2
2017-Nov-30 14:42N 29°14' W 094°29'0 0.1
2017-Nov-30 14:30N 29°14' W 094°29'0 0.0
2017-Nov-30 14:00N 29°14' W 094°29'0 0.0
2017-Nov-30 13:27N 29°14' W 094°29'0 0.0
2017-Nov-30 12:51N 29°14' W 094°29'0 0.0
2017-Nov-30 12:30N 29°14' W 094°29'0 0.0
2017-Nov-30 12:00N 29°14' W 094°29'0 0.0
2017-Nov-30 10:45N 29°14' W 094°29'0 0.1
2017-Nov-30 10:30N 29°14' W 094°29'0 0.0
2017-Nov-30 09:57N 29°14' W 094°29'0 0.0
2017-Nov-30 09:30N 29°14' W 094°29'0 0.0
2017-Nov-30 09:00N 29°14' W 094°29'0 0.0
2017-Nov-30 08:30N 29°14' W 094°29'  
Track history (hours):
 
Tides and Currents Weather Stations Pressure Air Temp Water Temp Dewpoint Dewpoint Depression Visibility Wind Speed Wind Dir Waves Ship Positions

Mikela P.

Last reported at 2017-Dec-08 06:18 UTC. Time now 2017-Dec-17 02:31 UTC.
Position N 25°56' W 079°24'.
Warning: this ship's position is 8 days out of date.

Length 274 m; draft 12.4 m.

Type: Ship. MMSI: 636014469.

Date/timePositionNaut miles runAvg speedWind from/ knotsBaromVisibWave heightAir tempDewpointWater temp
2017-Dec-08 06:18N 25°56' W 079°24'415.0
2017-Dec-08 06:00N 25°52' W 079°25'815.1
2017-Dec-08 05:30N 25°44' W 079°27'714.9
2017-Dec-08 05:00N 25°37' W 079°28'714.8
2017-Dec-08 04:30N 25°30' W 079°30'  
2017-Dec-03 05:50N 29°44' W 095°07'0 0.0
2017-Dec-03 04:32N 29°44' W 095°07'0 0.0
2017-Dec-03 04:11N 29°44' W 095°07'0 0.0
2017-Dec-02 08:47N 29°44' W 095°07'0 0.0
2017-Dec-02 08:23N 29°44' W 095°07'0 0.0
2017-Dec-02 06:14N 29°44' W 095°07'0 0.0
2017-Dec-02 05:56N 29°44' W 095°07'0 0.0
2017-Dec-02 00:14N 29°44' W 095°07'0 0.0
2017-Dec-01 23:59N 29°44' W 095°07'0 0.0
2017-Dec-01 23:30N 29°44' W 095°07'0 0.0
2017-Dec-01 23:01N 29°44' W 095°07'1 1.7
2017-Dec-01 22:31N 29°45' W 095°06'2 4.6
2017-Dec-01 22:01N 29°45' W 095°04'4 7.1
2017-Dec-01 21:31N 29°42' W 095°01'4 8.7
2017-Dec-01 21:00N 29°39' W 094°58'510.9
2017-Dec-01 20:31N 29°34' W 094°55'612.1
2017-Dec-01 20:01N 29°29' W 094°52'713.3
2017-Dec-01 19:30N 29°23' W 094°49'1112.7
2017-Dec-01 18:37N 29°18' W 094°37'1 9.9
2017-Dec-01 18:29N 29°17' W 094°36'7 0.2
2017-Nov-30 14:42N 29°14' W 094°29'0 0.1
2017-Nov-30 14:30N 29°14' W 094°29'0 0.0
2017-Nov-30 14:00N 29°14' W 094°29'0 0.0
2017-Nov-30 13:27N 29°14' W 094°29'0 0.0
2017-Nov-30 12:51N 29°14' W 094°29'0 0.0
2017-Nov-30 12:30N 29°14' W 094°29'0 0.0
2017-Nov-30 12:00N 29°14' W 094°29'0 0.0
2017-Nov-30 10:45N 29°14' W 094°29'0 0.1
2017-Nov-30 10:30N 29°14' W 094°29'0 0.0
2017-Nov-30 09:57N 29°14' W 094°29'0 0.0
2017-Nov-30 09:30N 29°14' W 094°29'0 0.0
2017-Nov-30 09:00N 29°14' W 094°29'0 0.0
2017-Nov-30 08:30N 29°14' W 094°29'  

Dump ship's entire track history